createdAt,value
2024-02-13T00:00:16.376Z,4.000000
2024-02-13T00:05:16.640Z,9.000000
2024-02-13T00:10:16.472Z,5.000000
2024-02-13T00:15:16.638Z,3.000000
2024-02-13T00:20:16.661Z,4.000000
2024-02-13T00:25:16.474Z,2.000000
2024-02-13T00:30:16.435Z,2.000000
2024-02-13T00:35:16.669Z,4.000000
2024-02-13T00:40:16.594Z,2.000000
2024-02-13T00:45:16.489Z,2.000000
2024-02-13T00:50:16.650Z,5.000000
2024-02-13T00:55:16.691Z,3.000000
2024-02-13T01:00:16.736Z,3.000000
2024-02-13T01:05:16.804Z,2.000000
2024-02-13T01:10:16.539Z,7.000000
2024-02-13T01:15:16.569Z,8.000000
2024-02-13T01:20:16.598Z,6.000000
2024-02-13T01:25:16.772Z,8.000000
2024-02-13T01:30:16.688Z,11.000000
2024-02-13T01:35:16.606Z,11.000000
2024-02-13T01:40:16.639Z,9.000000
2024-02-13T01:45:16.739Z,11.000000
2024-02-13T01:50:16.639Z,8.000000
2024-02-13T01:55:16.662Z,9.000000
2024-02-13T02:00:16.621Z,9.000000
2024-02-13T02:05:16.826Z,12.000000
2024-02-13T02:10:16.764Z,11.000000
2024-02-13T02:15:16.606Z,11.000000
2024-02-13T02:20:16.668Z,14.000000
2024-02-13T02:25:16.853Z,14.000000
2024-02-13T02:30:16.662Z,10.000000
2024-02-13T02:35:16.642Z,13.000000
2024-02-13T02:40:16.702Z,13.000000
2024-02-13T02:45:16.744Z,13.000000
2024-02-13T02:50:16.760Z,11.000000
2024-02-13T02:55:16.699Z,10.000000
2024-02-13T03:00:16.885Z,6.000000
2024-02-13T03:05:16.883Z,9.000000
2024-02-13T03:10:16.927Z,11.000000
2024-02-13T03:15:16.768Z,9.000000
2024-02-13T03:20:16.744Z,10.000000
2024-02-13T03:25:17.011Z,11.000000
2024-02-13T03:30:16.761Z,9.000000
2024-02-13T03:35:16.881Z,10.000000
2024-02-13T03:40:16.805Z,10.000000
2024-02-13T03:45:16.833Z,8.000000
2024-02-13T03:50:16.881Z,10.000000
2024-02-13T03:55:17.028Z,8.000000
2024-02-13T04:00:16.803Z,8.000000
2024-02-13T04:05:16.875Z,9.000000
2024-02-13T04:10:16.844Z,8.000000
2024-02-13T04:15:17.106Z,8.000000
2024-02-13T04:20:16.889Z,8.000000
2024-02-13T04:25:16.911Z,7.000000
2024-02-13T04:30:16.890Z,8.000000
2024-02-13T04:35:16.882Z,6.000000
2024-02-13T04:40:16.872Z,7.000000
2024-02-13T04:45:16.983Z,6.000000
2024-02-13T04:50:18.809Z,7.000000
2024-02-13T04:55:17.156Z,8.000000
2024-02-13T05:00:16.435Z,6.000000
2024-02-13T05:05:16.533Z,4.000000
2024-02-13T05:10:16.417Z,5.000000
2024-02-13T05:15:16.502Z,4.000000
2024-02-13T05:20:16.480Z,4.000000
2024-02-13T05:25:16.442Z,4.000000
2024-02-13T05:30:16.496Z,6.000000
2024-02-13T05:35:16.548Z,6.000000
2024-02-13T05:40:16.492Z,7.000000
2024-02-13T05:45:16.460Z,5.000000
2024-02-13T05:50:16.526Z,5.000000
2024-02-13T05:55:16.532Z,4.000000
2024-02-13T06:00:16.727Z,6.000000
2024-02-13T06:05:16.669Z,7.000000
2024-02-13T06:10:16.550Z,8.000000
2024-02-13T06:15:16.759Z,8.000000
2024-02-13T06:20:16.761Z,2.000000
2024-02-13T06:25:16.740Z,3.000000
2024-02-13T06:30:16.723Z,5.000000
2024-02-13T06:35:16.701Z,8.000000
2024-02-13T06:40:16.620Z,7.000000
2024-02-13T06:45:16.754Z,7.000000
2024-02-13T06:50:16.825Z,9.000000
2024-02-13T06:55:16.886Z,9.000000
2024-02-13T07:00:16.710Z,8.000000
2024-02-13T07:05:17.006Z,12.000000
2024-02-13T07:10:17.715Z,12.000000
2024-02-13T07:15:16.812Z,9.000000
2024-02-13T07:20:16.800Z,9.000000
2024-02-13T07:25:16.805Z,5.000000
2024-02-13T07:30:16.919Z,5.000000
2024-02-13T07:35:16.926Z,8.000000
2024-02-13T07:40:16.727Z,7.000000
2024-02-13T07:45:16.989Z,8.000000
2024-02-13T07:50:16.759Z,8.000000
2024-02-13T07:55:16.778Z,5.000000
2024-02-13T08:00:16.897Z,8.000000
2024-02-13T08:05:16.999Z,6.000000
2024-02-13T08:10:16.736Z,8.000000
2024-02-13T08:15:16.850Z,7.000000
2024-02-13T08:20:16.824Z,8.000000
2024-02-13T08:25:16.843Z,10.000000
2024-02-13T08:30:16.840Z,9.000000
2024-02-13T08:35:17.097Z,8.000000
2024-02-13T08:40:16.799Z,5.000000
2024-02-13T08:45:16.824Z,7.000000
2024-02-13T08:50:17.268Z,8.000000
2024-02-13T08:55:25.160Z,7.000000
2024-02-13T09:00:17.567Z,7.000000
2024-02-13T09:05:17.048Z,9.000000
2024-02-13T09:10:17.031Z,6.000000
2024-02-13T09:15:17.026Z,7.000000
2024-02-13T09:20:17.341Z,9.000000
2024-02-13T09:25:17.052Z,10.000000
2024-02-13T09:30:16.902Z,8.000000
2024-02-13T09:35:16.988Z,9.000000
2024-02-13T09:40:16.899Z,11.000000
2024-02-13T09:45:17.159Z,10.000000
2024-02-13T09:50:17.034Z,9.000000
2024-02-13T09:55:19.065Z,6.000000
2024-02-13T10:00:17.135Z,4.000000
2024-02-13T10:05:17.944Z,11.000000
2024-02-13T10:10:16.973Z,10.000000
2024-02-13T10:15:17.070Z,12.000000
2024-02-13T10:20:17.036Z,11.000000
2024-02-13T10:25:20.294Z,12.000000
2024-02-13T10:30:17.003Z,11.000000
2024-02-13T10:35:17.130Z,10.000000
2024-02-13T10:40:17.014Z,13.000000
2024-02-13T10:45:17.185Z,11.000000
2024-02-13T10:50:17.146Z,10.000000
2024-02-13T10:55:17.031Z,10.000000
2024-02-13T11:00:17.387Z,11.000000
2024-02-13T11:05:17.244Z,15.000000
2024-02-13T11:10:17.166Z,11.000000
2024-02-13T11:15:17.382Z,15.000000
2024-02-13T11:20:17.264Z,13.000000
2024-02-13T11:25:17.130Z,10.000000
2024-02-13T11:30:15.410Z,11.000000
2024-02-13T11:35:17.610Z,12.000000
2024-02-13T11:40:17.197Z,11.000000
2024-02-13T11:45:17.120Z,14.000000
2024-02-13T11:50:17.237Z,14.000000
2024-02-13T11:55:17.407Z,13.000000
2024-02-13T12:00:17.194Z,14.000000
2024-02-13T12:05:17.296Z,12.000000
2024-02-13T12:10:17.359Z,15.000000
2024-02-13T12:15:17.169Z,16.000000
2024-02-13T12:20:17.282Z,13.000000
2024-02-13T12:25:17.466Z,15.000000
2024-02-13T12:30:17.193Z,12.000000
2024-02-13T12:35:17.237Z,13.000000
2024-02-13T12:40:17.246Z,14.000000
2024-02-13T12:45:15.241Z,13.000000
2024-02-13T12:50:15.637Z,12.000000
2024-02-13T12:55:15.377Z,13.000000
2024-02-13T13:00:15.254Z,15.000000
2024-02-13T13:05:15.409Z,16.000000
2024-02-13T13:10:15.367Z,18.000000
2024-02-13T13:15:19.953Z,16.000000
2024-02-13T13:20:15.372Z,12.000000
2024-02-13T13:25:15.380Z,14.000000
2024-02-13T13:30:15.429Z,18.000000
2024-02-13T13:35:15.727Z,17.000000
2024-02-13T13:40:15.425Z,16.000000
2024-02-13T13:45:15.607Z,14.000000
2024-02-13T13:50:15.553Z,18.000000
2024-02-13T13:55:15.541Z,18.000000
2024-02-13T14:00:15.361Z,16.000000
2024-02-13T14:05:15.728Z,21.000000
2024-02-13T14:10:15.562Z,22.000000
2024-02-13T14:15:15.589Z,18.000000
2024-02-13T14:20:16.060Z,16.000000
2024-02-13T14:25:15.718Z,17.000000
2024-02-13T14:30:15.401Z,18.000000
2024-02-13T14:35:15.775Z,14.000000
2024-02-13T14:40:15.445Z,18.000000
2024-02-13T14:45:15.437Z,18.000000
2024-02-13T14:50:15.647Z,17.000000
2024-02-13T14:55:15.450Z,19.000000
2024-02-13T15:00:15.598Z,15.000000
2024-02-13T15:05:15.478Z,13.000000
2024-02-13T15:10:15.546Z,17.000000
2024-02-13T15:15:15.541Z,18.000000
2024-02-13T15:20:15.626Z,15.000000
2024-02-13T15:25:15.734Z,16.000000
2024-02-13T15:30:15.793Z,16.000000
2024-02-13T15:35:15.693Z,14.000000
2024-02-13T15:40:15.646Z,19.000000
2024-02-13T15:45:15.618Z,15.000000
2024-02-13T15:50:15.815Z,12.000000
2024-02-13T15:55:15.741Z,11.000000
2024-02-13T16:00:15.838Z,10.000000
2024-02-13T16:05:15.654Z,12.000000
2024-02-13T16:10:15.801Z,14.000000
2024-02-13T16:15:15.795Z,11.000000
2024-02-13T16:20:15.892Z,12.000000
2024-02-13T16:25:15.788Z,10.000000
2024-02-13T16:30:15.857Z,12.000000
2024-02-13T16:35:16.185Z,14.000000
2024-02-13T16:40:15.702Z,19.000000
2024-02-13T16:45:15.823Z,13.000000
2024-02-13T16:50:16.229Z,13.000000
2024-02-13T16:55:15.708Z,15.000000
2024-02-13T17:00:15.989Z,13.000000
2024-02-13T17:05:15.766Z,18.000000
2024-02-13T17:10:15.794Z,19.000000
2024-02-13T17:15:15.758Z,15.000000
2024-02-13T17:20:16.033Z,16.000000
2024-02-13T17:25:15.711Z,15.000000
2024-02-13T17:30:16.345Z,19.000000
2024-02-13T17:35:15.815Z,22.000000
2024-02-13T17:40:15.972Z,18.000000
2024-02-13T17:45:15.981Z,17.000000
2024-02-13T17:50:15.789Z,17.000000
2024-02-13T17:55:15.815Z,19.000000
2024-02-13T18:00:15.985Z,14.000000
2024-02-13T18:05:16.136Z,18.000000
2024-02-13T18:10:15.837Z,18.000000
2024-02-13T18:15:15.884Z,15.000000
2024-02-13T18:20:16.897Z,20.000000
2024-02-13T18:25:15.933Z,20.000000
2024-02-13T18:30:15.980Z,15.000000
2024-02-13T18:35:15.879Z,16.000000
2024-02-13T18:40:15.874Z,20.000000
2024-02-13T18:45:15.922Z,22.000000
2024-02-13T18:50:16.033Z,14.000000
2024-02-13T18:55:15.897Z,21.000000
2024-02-13T19:00:16.126Z,24.000000
2024-02-13T19:05:16.199Z,19.000000
2024-02-13T19:10:16.119Z,13.000000
2024-02-13T19:15:15.908Z,14.000000
2024-02-13T19:20:16.013Z,18.000000
2024-02-13T19:25:15.941Z,19.000000
2024-02-13T19:30:17.974Z,14.000000
2024-02-13T19:35:15.951Z,15.000000
2024-02-13T19:40:15.998Z,16.000000
2024-02-13T19:45:15.994Z,13.000000
2024-02-13T19:50:16.053Z,12.000000
2024-02-13T19:55:16.118Z,10.000000
2024-02-13T20:00:15.997Z,13.000000
2024-02-13T20:05:16.366Z,12.000000
2024-02-13T20:10:16.040Z,12.000000
2024-02-13T20:15:16.115Z,11.000000
2024-02-13T20:20:16.511Z,10.000000
2024-02-13T20:25:16.034Z,10.000000
2024-02-13T20:30:16.202Z,9.000000
2024-02-13T20:35:16.106Z,12.000000
2024-02-13T20:40:16.088Z,12.000000
2024-02-13T20:45:21.859Z,10.000000
2024-02-13T20:50:16.283Z,9.000000
2024-02-13T20:55:16.165Z,13.000000
2024-02-13T21:00:16.338Z,10.000000
2024-02-13T21:05:16.134Z,10.000000
2024-02-13T21:10:16.165Z,10.000000
2024-02-13T21:15:16.373Z,9.000000
2024-02-13T21:20:16.115Z,12.000000
2024-02-13T21:25:16.197Z,11.000000
2024-02-13T21:30:16.222Z,11.000000
2024-02-13T21:35:16.385Z,9.000000
2024-02-13T21:40:16.246Z,12.000000
2024-02-13T21:45:16.407Z,5.000000
2024-02-13T21:50:16.200Z,11.000000
2024-02-13T21:55:16.477Z,12.000000
2024-02-13T22:00:16.301Z,13.000000
2024-02-13T22:05:16.470Z,11.000000
2024-02-13T22:10:16.264Z,9.000000
2024-02-13T22:15:16.337Z,8.000000
2024-02-13T22:20:16.341Z,3.000000
2024-02-13T22:25:16.244Z,4.000000
2024-02-13T22:30:16.370Z,5.000000
2024-02-13T22:35:16.330Z,8.000000
2024-02-13T22:40:16.473Z,5.000000
2024-02-13T22:45:16.341Z,4.000000
2024-02-13T22:50:16.595Z,10.000000
2024-02-13T22:55:16.365Z,7.000000
2024-02-13T23:00:16.670Z,10.000000
2024-02-13T23:05:16.467Z,9.000000
2024-02-13T23:10:16.519Z,5.000000
2024-02-13T23:15:23.124Z,7.000000
2024-02-13T23:20:16.374Z,3.000000
2024-02-13T23:25:16.604Z,3.000000
2024-02-13T23:30:16.433Z,6.000000
2024-02-13T23:35:16.642Z,5.000000
2024-02-13T23:40:16.414Z,7.000000
2024-02-13T23:45:16.618Z,4.000000
2024-02-13T23:50:16.425Z,4.000000
2024-02-13T23:55:16.428Z,3.000000
